Latest Weather Observations for Palmerville

IDQ60801

Issued at 11:02 am EST Friday 12 February 2016 (issued every 30 minutes, with the page automatically refreshed every 10 minutes)

About weather observations | Map of weather stations | Latest weather observations for QLD | Other Formats
Station Details ID: 028004 Name: PALMERVILLE Lat: -16.00 Lon: 144.08 Height: 203.8 m
Data from the previous 72 hours. | See also: Recent months at Palmerville
Date/Time
EST
Temp
°C
App
Temp
°C
Dew
Point
Rel
Hum
%
Delta-T
°C
Wind Press
QNH
hPa
Press
MSL
hPa
Rain
since 9 am
mm
Dir
 
Spd
km/h
Gust
km/h
Spd
kts
Gust
kts
12/11:00am 29.3 33.5 21.8 64 5.1 NE 2 6 1 3 1010.3 1008.9 0.2
12/10:30am 28.2 32.2 22.0 69 4.2 NNE 4 9 2 5 1010.5 1009.1 0.0
12/10:00am 27.7 32.2 22.2 72 3.7 SSW 2 7 1 4 1010.9 1009.5 0.0
12/09:30am 26.6 30.4 22.7 79 2.7 S 7 9 4 5 1011.2 1009.8 0.0
12/09:00am 25.8 31.2 23.3 86 1.7 CALM 0 0 0 0 1011.1 1009.7 47.6
12/08:30am 25.2 31.2 24.2 94 0.7 CALM 0 0 0 0 1011.1 1009.7 47.6
12/08:00am 24.8 31.0 24.6 99 0.1 CALM 0 0 0 0 1010.8 1009.4 47.6
12/07:30am 24.3 30.3 24.3 100 0.0 CALM 0 0 0 0 1010.5 1009.1 47.6
12/07:00am 23.7 29.4 23.7 100 0.0 CALM 0 0 0 0 1010.1 1008.7 47.6
12/06:30am 23.3 28.7 23.3 100 0.0 CALM 0 0 0 0 1009.9 1008.5 47.6
12/06:00am 23.3 28.7 23.3 100 0.0 CALM 0 0 0 0 1009.5 1008.1 47.6
12/05:30am 23.4 27.8 23.4 100 0.0 SE 6 7 3 4 1009.3 1007.9 47.6
12/05:00am 23.5 27.9 23.5 100 0.0 E 6 6 3 3 1008.8 1007.3 47.6
12/04:30am 23.6 28.1 23.6 100 0.0 SSE 6 7 3 4 1008.7 1007.2 47.6
12/04:00am 23.9 29.7 23.9 100 0.0 CALM 0 0 0 0 1008.6 1007.1 47.6
12/03:30am 24.1 30.0 24.1 100 0.0 CALM 0 0 0 0 1008.4 1006.9 47.6
12/03:00am 24.1 30.0 24.1 100 0.0 CALM 0 0 0 0 1008.5 1007.0 47.6
12/02:30am 24.0 29.8 24.0 100 0.0 CALM 0 0 0 0 1008.7 1007.2 47.6
12/02:00am 24.0 29.3 23.7 98 0.2 E 2 7 1 4 1008.9 1007.4 47.6
12/01:30am 24.1 29.9 23.9 99 0.1 CALM 0 0 0 0 1009.2 1007.8 47.6
12/01:00am 24.1 29.9 23.9 99 0.1 CALM 0 4 0 2 1009.3 1007.9 47.4
12/12:30am 24.2 30.0 24.0 99 0.1 CALM 0 0 0 0 1009.4 1008.0 47.4
12/12:00am 24.3 29.2 24.3 100 0.0 NNE 6 7 3 4 1009.6 1008.2 47.4
 
Date/Time
EST
Temp
°C
App
Temp
°C
Dew
Point
Rel
Hum
%
Delta-T
°C
Wind Press
QNH
hPa
Press
MSL
hPa
Rain
since 9 am
mm
Dir
 
Spd
km/h
Gust
km/h
Spd
kts
Gust
kts
11/11:30pm 24.3 29.8 24.1 99 0.1 NW 2 7 1 4 1010.0 1008.6 47.4
11/11:00pm 24.2 28.8 24.2 100 0.0 NNE 7 11 4 6 1010.1 1008.7 47.4
11/10:30pm 24.1 28.7 24.1 100 0.0 N 7 11 4 6 1010.2 1008.8 47.4
11/10:00pm 24.1 30.0 24.1 100 0.0 CALM 0 0 0 0 1010.3 1008.9 47.4
11/09:30pm 23.9 29.7 23.9 100 0.0 CALM 0 0 0 0 1010.3 1008.9 47.4
11/09:00pm 24.0 28.7 24.0 100 0.0 N 6 11 3 6 1010.1 1008.7 46.4
11/08:30pm 24.0 28.7 24.0 100 0.0 NNE 6 9 3 5 1009.7 1008.3 45.0
11/08:00pm 24.0 28.5 24.0 100 0.0 NNE 7 11 4 6 1009.3 1007.9 42.2
11/07:30pm 24.0 28.7 24.0 100 0.0 E 6 11 3 6 1008.9 1007.4 33.2
11/07:00pm 24.1 28.3 24.1 100 0.0 SE 9 15 5 8 1008.2 1006.7 25.8
11/06:30pm 24.1 27.5 24.1 100 0.0 NE 13 24 7 13 1007.5 1006.1 22.6
11/06:00pm 24.6 27.9 23.9 96 0.5 E 13 28 7 15 1007.2 1005.8 10.6
11/05:30pm 26.4 28.7 22.7 80 2.5 ENE 15 24 8 13 1006.4 1005.0 0.2
11/05:00pm 28.5 31.4 22.5 70 4.1 NNE 11 20 6 11 1005.8 1004.4 0.2
11/04:30pm 30.3 34.6 24.2 70 4.3 SSE 9 13 5 7 1005.5 1004.1 0.0
11/04:00pm 28.8 32.5 23.2 71 3.9 W 9 15 5 8 1005.4 1004.0 0.0
11/03:30pm 30.8 34.1 21.9 59 6.1 E 7 11 4 6 1005.5 1004.1 0.0
11/03:00pm 32.4 36.1 22.2 55 7.0 NW 6 9 3 5 1005.6 1004.2 0.0
11/02:30pm 31.9 35.6 22.3 56 6.6 WSW 6 9 3 5 1005.9 1004.5 0.0
11/02:00pm 30.8 34.3 22.1 59 6.0 E 7 9 4 5 1006.4 1005.0 0.0
11/01:30pm 31.7 36.2 24.0 63 5.4 SE 7 11 4 6 1006.9 1005.5 0.0
11/01:00pm 30.4 34.5 23.3 66 4.9 NE 7 13 4 7 1007.5 1006.1 0.0
11/12:30pm 30.3 34.2 23.0 65 5.0 E 7 13 4 7 1008.2 1006.7 0.0
11/12:00pm 30.3 33.9 23.0 65 5.0 ESE 9 13 5 7 1008.4 1006.9 0.0
11/11:30am 29.7 33.2 22.2 64 5.1 E 7 13 4 7 1009.0 1007.6 0.0
11/11:00am 29.1 33.5 22.8 69 4.3 SSE 4 9 2 5 1009.6 1008.2 0.0
11/10:30am 28.0 32.5 22.9 74 3.5 S 4 9 2 5 1009.9 1008.5 0.0
11/10:00am 26.7 31.3 22.5 78 2.9 W 2 7 1 4 1009.9 1008.5 0.0
11/09:30am 26.2 30.6 23.5 85 1.9 WSW 6 9 3 5 1010.0 1008.6 0.0
11/09:00am 25.3 29.8 23.7 91 1.1 SW 6 9 3 5 1010.1 1008.7 3.4
11/08:30am 25.1 29.8 23.9 93 0.8 SSW 6 7 3 4 1009.7 1008.3 3.4
11/08:00am 24.4 29.0 24.1 98 0.2 SW 7 9 4 5 1009.5 1008.1 3.4
11/07:30am 24.4 29.3 24.4 100 0.0 W 6 9 3 5 1009.0 1007.6 3.2
11/07:00am 24.7 29.6 24.7 100 0.0 WNW 7 11 4 6 1008.5 1007.0 3.2
11/06:30am 24.4 30.5 24.4 100 0.0 CALM 0 0 0 0 1008.4 1006.9 3.2
11/06:00am 24.3 30.3 24.3 100 0.0 CALM 0 6 0 3 1008.7 1007.2 3.2
11/05:30am 24.7 29.6 24.7 100 0.0 SSW 7 11 4 6 1008.4 1006.9 3.2
11/05:00am 24.8 30.4 24.8 100 0.0 S 4 7 2 4 1008.0 1006.5 3.2
11/04:30am 24.6 30.8 24.6 100 0.0 CALM 0 0 0 0 1007.7 1006.3 3.2
11/04:00am 24.7 31.0 24.7 100 0.0 CALM 0 0 0 0 1007.7 1006.3 3.2
11/03:30am 24.7 30.8 24.5 99 0.1 CALM 0 0 0 0 1007.7 1006.3 3.2
11/03:00am 25.0 31.3 24.8 99 0.1 CALM 0 0 0 0 1007.9 1006.4 1.8
11/02:30am 25.1 31.3 24.6 97 0.3 CALM 0 0 0 0 1007.9 1006.4 1.8
11/02:00am 25.3 31.0 24.4 95 0.6 WSW 2 7 1 4 1007.7 1006.3 1.6
11/01:30am 25.4 31.7 24.7 96 0.5 CALM 0 0 0 0 1007.5 1006.1 1.6
11/01:00am 25.3 31.4 24.4 95 0.6 CALM 0 0 0 0 1007.9 1006.4 1.6
11/12:30am 25.4 31.5 24.4 94 0.7 CALM 0 0 0 0 1008.4 1006.9 1.6
11/12:00am 25.4 31.5 24.4 94 0.7 CALM 0 0 0 0 1008.7 1007.2 1.6
 
Date/Time
EST
Temp
°C
App
Temp
°C
Dew
Point
Rel
Hum
%
Delta-T
°C
Wind Press
QNH
hPa
Press
MSL
hPa
Rain
since 9 am
mm
Dir
 
Spd
km/h
Gust
km/h
Spd
kts
Gust
kts
10/11:30pm 25.3 31.2 24.1 93 0.8 CALM 0 0 0 0 1009.0 1007.6 1.6
10/11:00pm 25.2 30.3 24.0 93 0.8 ENE 4 9 2 5 1009.0 1007.6 1.6
10/10:30pm 25.2 29.9 24.0 93 0.8 ENE 6 7 3 4 1009.0 1007.6 1.6
10/10:00pm 25.2 30.1 23.6 91 1.1 E 4 7 2 4 1009.0 1007.6 1.6
10/09:30pm 25.3 29.7 23.4 89 1.3 N 6 7 3 4 1008.8 1007.3 1.6
10/09:00pm 25.5 29.6 23.2 87 1.6 N 7 9 4 5 1008.7 1007.2 1.6
10/08:30pm 25.7 29.3 23.0 85 1.8 N 9 15 5 8 1008.5 1007.0 1.6
10/08:00pm 25.9 29.2 23.2 85 1.9 NNE 11 17 6 9 1008.5 1007.0 1.6
10/07:30pm 26.2 27.6 22.5 80 2.5 NNE 19 30 10 16 1008.1 1006.6 1.6
10/07:00pm 27.5 32.4 24.6 84 2.0 ENE 7 11 4 6 1007.3 1005.9 1.6
10/06:30pm 27.6 33.9 25.4 88 1.6 ENE 2 7 1 4 1006.7 1005.3 1.6
10/06:00pm 27.5 32.9 25.1 87 1.7 E 6 9 3 5 1006.4 1005.0 1.6
10/05:30pm 27.2 32.8 24.8 87 1.7 ESE 4 7 2 4 1006.4 1005.0 1.6
10/05:00pm 26.9 32.7 24.0 84 2.0 CALM 0 0 0 0 1006.1 1004.7 1.6
10/04:30pm 26.3 32.1 24.0 87 1.6 CALM 0 0 0 0 1006.1 1004.7 1.6
10/04:00pm 25.8 31.9 24.4 92 1.0 CALM 0 0 0 0 1006.1 1004.7 1.6
10/03:30pm 25.3 30.0 24.3 94 0.7 ESE 7 11 4 6 1006.6 1005.2 1.4
10/03:00pm 25.0 28.6 23.1 89 1.3 NW 9 15 5 8 1006.7 1005.3 0.6
10/02:30pm 26.7 28.8 23.8 84 2.0 N 19 26 10 14 1006.6 1005.2 0.2
10/02:00pm 28.0 30.3 23.4 76 3.2 N 17 24 9 13 1006.7 1005.3 0.2
10/01:30pm 30.5 34.0 22.9 64 5.2 S 9 11 5 6 1006.8 1005.4 0.2
10/01:00pm 32.0 36.3 24.3 63 5.4 SSE 9 15 5 8 1007.2 1005.8 0.2
10/12:30pm 31.3 35.7 23.4 63 5.5 ESE 6 9 3 5 1007.7 1006.3 0.2
10/12:00pm 30.4 35.0 23.8 68 4.6 SW 6 11 3 6 1008.3 1006.8 0.2
10/11:30am 30.5 35.3 24.4 70 4.3 SE 7 13 4 7 1008.7 1007.2 0.2
10/11:00am 29.6 34.4 25.1 77 3.2 SW 9 13 5 7 1009.0 1007.6 0.2
10/10:30am 29.2 33.0 23.4 71 4.0 SSE 9 13 5 7 1009.0 1007.6 0.2
10/10:00am 28.5 32.4 23.6 75 3.4 S 9 15 5 8 1009.2 1007.8 0.2
10/09:30am 27.7 31.4 23.3 77 3.0 S 9 11 5 6 1009.4 1008.0 0.0
10/09:00am 27.4 31.8 24.5 84 2.0 SSE 9 15 5 8 1009.5 1008.1 84.6
10/08:30am 27.1 31.9 24.4 85 1.9 SSE 7 13 4 7 1009.4 1008.0 84.6
10/08:00am 25.6 30.5 24.6 94 0.7 ESE 7 9 4 5 1009.2 1007.8 84.6
10/07:30am 24.9 31.2 24.7 99 0.1 CALM 0 0 0 0 1008.9 1007.4 84.6
10/07:00am 24.5 30.6 24.5 100 0.0 CALM 0 0 0 0 1008.6 1007.1 84.6
10/06:30am 24.2 30.2 24.2 100 0.0 CALM 0 0 0 0 1008.4 1006.9 84.6
10/06:00am 24.2 30.2 24.2 100 0.0 CALM 0 0 0 0 1008.1 1006.6 84.6
10/05:30am 24.1 29.2 24.1 100 0.0 NNE 4 7 2 4 1008.0 1006.5 84.6
10/05:00am 24.0 29.5 24.0 100 0.0 ESE 2 7 1 4 1007.6 1006.2 84.6
10/04:30am 24.1 28.9 24.1 100 0.0 S 6 9 3 5 1007.6 1006.2 84.6
10/04:00am 24.0 28.5 24.0 100 0.0 SSE 7 9 4 5 1007.9 1006.4 84.4
10/03:30am 24.0 29.1 24.0 100 0.0 SSW 4 7 2 4 1007.9 1006.4 84.4
10/03:00am 23.9 28.6 23.9 100 0.0 S 6 7 3 4 1007.7 1006.3 84.4
10/02:30am 23.8 28.4 23.8 100 0.0 SW 6 7 3 4 1008.2 1006.7 84.2
10/02:00am 23.9 28.6 23.9 100 0.0 W 6 7 3 4 1008.3 1006.8 84.2
10/01:30am 23.9 29.7 23.9 100 0.0 CALM 0 6 0 3 1008.3 1006.8 83.8
10/01:00am 24.0 29.1 24.0 100 0.0 WSW 4 7 2 4 1008.8 1007.3 83.6
10/12:30am 24.0 29.1 24.0 100 0.0 WSW 4 7 2 4 1009.2 1007.8 83.2
10/12:00am 24.0 28.7 24.0 100 0.0 W 6 7 3 4 1009.8 1008.4 82.2
 
Date/Time
EST
Temp
°C
App
Temp
°C
Dew
Point
Rel
Hum
%
Delta-T
°C
Wind Press
QNH
hPa
Press
MSL
hPa
Rain
since 9 am
mm
Dir
 
Spd
km/h
Gust
km/h
Spd
kts
Gust
kts
09/11:30pm 24.1 28.9 24.1 100 0.0 NW 6 7 3 4 1010.4 1009.0 80.6
09/11:00pm 23.8 29.5 23.8 100 0.0 CALM 0 0 0 0 1010.6 1009.2 78.2
09/10:30pm 23.8 28.8 23.8 100 0.0 SSW 4 7 2 4 1011.2 1009.8 74.4
09/10:00pm 24.0 28.5 24.0 100 0.0 SW 7 9 4 5 1011.2 1009.8 70.8
09/09:30pm 24.4 29.3 24.4 100 0.0 SW 6 9 3 5 1010.6 1009.2 68.4
09/09:00pm 24.4 29.7 24.4 100 0.0 NW 4 7 2 4 1010.6 1009.2 66.6
09/08:30pm 24.4 30.5 24.4 100 0.0 CALM 0 0 0 0 1010.1 1008.7 64.8
09/08:00pm 24.3 28.6 24.3 100 0.0 E 9 15 5 8 1009.4 1008.0 58.2
09/07:30pm 24.6 28.3 24.6 100 0.0 ENE 13 19 7 10 1009.0 1007.6 51.6
09/07:00pm 24.9 30.0 24.9 100 0.0 ENE 7 11 4 6 1008.7 1007.2 36.8
09/06:30pm 25.9 31.1 25.7 99 0.1 NNE 9 15 5 8 1008.1 1006.6 26.8
09/06:00pm 25.1 30.7 24.9 99 0.1 E 4 9 2 5 1006.8 1005.4 26.8
09/05:30pm 25.0 28.1 22.9 88 1.4 WNW 11 15 6 8 1006.6 1005.2 20.8
09/05:00pm 29.1 32.3 23.1 70 4.1 SSW 11 28 6 15 1006.0 1004.6 0.0
09/04:30pm 29.9 32.1 23.3 67 4.6 WNW 17 24 9 13 1005.0 1003.6 0.0
09/04:00pm 33.5 37.1 24.4 59 6.5 WNW 13 17 7 9 1004.8 1003.4 0.0
09/03:30pm 32.0 35.8 23.5 60 5.9 W 9 15 5 8 1004.9 1003.5 0.0
09/03:00pm 33.4 36.7 21.9 51 7.9 NE 7 13 4 7 1005.2 1003.8 0.0
09/02:30pm 34.3 37.9 22.0 48 8.5 NNE 6 13 3 7 1005.7 1004.3 0.0
09/02:00pm 33.7 36.9 23.1 54 7.4 NNE 11 19 6 10 1006.3 1004.9 0.0
09/01:30pm 34.4 38.2 22.8 51 8.1 SW 7 11 4 6 1006.8 1005.4 0.0
09/01:00pm 33.8 38.4 23.8 56 7.0 WNW 6 11 3 6 1007.3 1005.9 0.0
09/12:30pm 32.9 36.1 21.7 51 7.6 NNE 7 11 4 6 1008.1 1006.6 0.0
09/12:00pm 32.7 37.6 23.6 58 6.4 NNW 4 9 2 5 1008.8 1007.3 0.0
09/11:30am 32.8 36.8 23.7 58 6.4 NNE 9 13 5 7 1009.4 1008.0 0.0

Other Formats:

Comma delimited format used in spreadsheet applications
http://www.bom.gov.au/fwo/IDQ60801/IDQ60801.94276.axf

JavaScript Object Notation format (JSON) in row-major order
http://www.bom.gov.au/fwo/IDQ60801/IDQ60801.94276.json